Terminal Aerodrome Forecast
Issued by NWS

Home | Current Version | Previous Version | Text Only | Print | Product List | Glossary On
Versions: 1 2 3 4 5 6 7 8 9 10 11 12 13 14 15 16 17 18
000
FTUS41 KGYX 121100
TAFPSM
TAF
KPSM 121128Z 1212/1312 VRB03KT P6SM FEW250
     FM121500 15008KT P6SM FEW050 SCT250
     FM122300 18003KT P6SM FEW050 SCT100 BKN250
     FM130700 18003KT 3SM BR SCT050 BKN100=

USA.gov is the U.S. government's official web portal to all federal, state and local government web resources and services.